PWSweather.com
Personal Weather Stations
Station Observations
HAJERN
Hajeren, HvittingfossNO 3647

HajerenHvittingfossNO 3647

Lat: 59.54314324, Lon: 9.95778703

Elevation: 1320

Station Type: Fine Ofset WS 1080

www.hajern.no

High Low Average
Temperature 56.3°F13.5°C 47.3°F8.5°C 51.8°F11.0°C
Dew Point 56.0°F13.3°C 47.0°F8.3°C 51.2°F10.7°C
Winds 9.8 mph 15.8 kmh 0.4 mph 0.6 kmh 4.0 mph SSE6.4 kmh SSE
Wind Gusts 16.8 mph27.0 kmh 1.6 mph2.6 kmh 7.0 mph11.3 kmh
Humidity 99% 81% 98%
Pressure 29.66 in1004.4 mb 29.53 in1000.0 mb -
Precipitation 0.32 in8.1 mm - -
Hour Temp Dew Point Humidity Winds Wind Gusts Pressure Precip Precip Rate Daily Precip Total
12:00 AM 50.2°F10.1°C 49.1°F9.5°C 96% 5.7 mph SSW9.2 kmh SSW 8.3 mph13.4 kmh 29.66 in1004.4 mb 0.00 in0.0 mm 0.00 in0.0 mm 0.00 in0.0 mm
12:15 AM 49.6°F9.8°C 49.4°F9.7°C 99% 4.8 mph SSW7.7 kmh SSW 6.9 mph11.1 kmh 29.65 in1004.1 mb 0.00 in0.0 mm 0.00 in0.0 mm 0.00 in0.0 mm
12:30 AM 49.1°F9.5°C 48.8°F9.3°C 99% 4.2 mph SW6.8 kmh SW 6.9 mph11.1 kmh 29.65 in1004.1 mb 0.00 in0.0 mm 0.00 in0.0 mm 0.00 in0.0 mm
12:45 AM 49.1°F9.5°C 48.8°F9.3°C 99% 3.7 mph S6.0 kmh S 7.6 mph12.2 kmh 29.65 in1004.1 mb 0.00 in0.0 mm 0.00 in0.0 mm 0.00 in0.0 mm
01:00 AM 48.7°F9.3°C 48.5°F9.2°C 99% 3.5 mph S5.6 kmh S 6.9 mph11.1 kmh 29.65 in1004.1 mb 0.00 in0.0 mm 0.00 in0.0 mm 0.00 in0.0 mm
01:15 AM 48.4°F9.1°C 48.1°F8.9°C 99% 0.9 mph SE1.4 kmh SE 2.2 mph3.5 kmh 29.65 in1004.1 mb 0.00 in0.0 mm 0.00 in0.0 mm 0.00 in0.0 mm
01:30 AM 47.8°F8.8°C 47.6°F8.7°C 99% 0.6 mph E1.0 kmh E 1.6 mph2.6 kmh 29.65 in1004.1 mb 0.00 in0.0 mm 0.00 in0.0 mm 0.00 in0.0 mm
01:45 AM 47.3°F8.5°C 47.0°F8.3°C 99% 1.4 mph E2.3 kmh E 2.2 mph3.5 kmh 29.65 in1004.1 mb 0.00 in0.0 mm 0.00 in0.0 mm 0.00 in0.0 mm
02:00 AM 47.3°F8.5°C 47.0°F8.3°C 99% 1.1 mph S1.8 kmh S 3.1 mph5.0 kmh 29.65 in1004.1 mb 0.00 in0.0 mm 0.00 in0.0 mm 0.00 in0.0 mm
02:15 AM 47.7°F8.7°C 47.4°F8.6°C 99% 0.4 mph S0.6 kmh S 1.6 mph2.6 kmh 29.65 in1004.1 mb 0.00 in0.0 mm 0.00 in0.0 mm 0.00 in0.0 mm
02:30 AM 47.8°F8.8°C 47.6°F8.7°C 99% 1.9 mph SE3.1 kmh SE 3.8 mph6.1 kmh 29.65 in1004.1 mb 0.00 in0.0 mm 0.00 in0.0 mm 0.00 in0.0 mm
02:45 AM 47.8°F8.8°C 47.6°F8.7°C 99% 2.2 mph SE3.5 kmh SE 3.1 mph5.0 kmh 29.66 in1004.4 mb 0.02 in0.5 mm 0.08 in2.0 mm 0.02 in0.5 mm
03:00 AM 47.7°F8.7°C 47.4°F8.6°C 99% 1.6 mph ESE2.6 kmh ESE 2.2 mph3.5 kmh 29.65 in1004.1 mb 0.02 in0.5 mm 0.00 in0.0 mm 0.02 in0.5 mm
03:15 AM 47.8°F8.8°C 47.6°F8.7°C 99% 1.9 mph SE3.1 kmh SE 4.5 mph7.2 kmh 29.65 in1004.1 mb 0.02 in0.5 mm 0.00 in0.0 mm 0.02 in0.5 mm
03:30 AM 47.8°F8.8°C 47.6°F8.7°C 99% 1.9 mph S3.1 kmh S 4.5 mph7.2 kmh 29.65 in1004.1 mb 0.02 in0.5 mm 0.00 in0.0 mm 0.02 in0.5 mm
03:45 AM 48.4°F9.1°C 48.1°F8.9°C 99% 2.9 mph SE4.7 kmh SE 4.5 mph7.2 kmh 29.65 in1004.1 mb 0.00 in0.0 mm 0.00 in0.0 mm 0.02 in0.5 mm
04:00 AM 48.0°F8.9°C 47.8°F8.8°C 99% 0.8 mph SW1.3 kmh SW 2.2 mph3.5 kmh 29.65 in1004.1 mb 0.00 in0.0 mm 0.00 in0.0 mm 0.02 in0.5 mm
04:15 AM 47.7°F8.7°C 47.4°F8.6°C 99% 1.0 mph SSW1.6 kmh SSW 3.8 mph6.1 kmh 29.65 in1004.1 mb 0.00 in0.0 mm 0.00 in0.0 mm 0.02 in0.5 mm
04:30 AM 48.0°F8.9°C 47.8°F8.8°C 99% 2.1 mph SE3.4 kmh SE 3.1 mph5.0 kmh 29.64 in1003.7 mb 0.00 in0.0 mm 0.00 in0.0 mm 0.02 in0.5 mm
04:45 AM 48.6°F9.2°C 48.3°F9.1°C 99% 2.3 mph SE3.7 kmh SE 3.1 mph5.0 kmh 29.65 in1004.1 mb 0.00 in0.0 mm 0.00 in0.0 mm 0.02 in0.5 mm
05:00 AM 48.9°F9.4°C 48.7°F9.3°C 99% 2.7 mph SE4.3 kmh SE 4.5 mph7.2 kmh 29.64 in1003.7 mb 0.00 in0.0 mm 0.00 in0.0 mm 0.02 in0.5 mm
05:15 AM 49.6°F9.8°C 49.4°F9.7°C 99% 1.8 mph SSE2.9 kmh SSE 4.5 mph7.2 kmh 29.64 in1003.7 mb 0.00 in0.0 mm 0.00 in0.0 mm 0.02 in0.5 mm
05:30 AM 50.4°F10.2°C 50.1°F10.1°C 99% 1.5 mph S2.4 kmh S 3.1 mph5.0 kmh 29.64 in1003.7 mb 0.00 in0.0 mm 0.00 in0.0 mm 0.02 in0.5 mm
05:45 AM 51.1°F10.6°C 50.8°F10.4°C 99% 2.2 mph S3.5 kmh S 3.8 mph6.1 kmh 29.64 in1003.7 mb 0.00 in0.0 mm 0.00 in0.0 mm 0.02 in0.5 mm
06:00 AM 52.3°F11.3°C 51.0°F10.6°C 95% 1.9 mph SSW3.1 kmh SSW 4.5 mph7.2 kmh 29.64 in1003.7 mb 0.00 in0.0 mm 0.00 in0.0 mm 0.02 in0.5 mm
06:15 AM 54.5°F12.5°C 50.4°F10.2°C 86% 3.0 mph SW4.8 kmh SW 4.5 mph7.2 kmh 29.64 in1003.7 mb 0.00 in0.0 mm 0.00 in0.0 mm 0.02 in0.5 mm
06:30 AM 54.7°F12.6°C 49.6°F9.8°C 83% 2.9 mph S4.7 kmh S 5.4 mph8.7 kmh 29.64 in1003.7 mb 0.00 in0.0 mm 0.00 in0.0 mm 0.02 in0.5 mm
06:45 AM 54.0°F12.2°C 48.3°F9.1°C 81% 2.7 mph S4.3 kmh S 4.5 mph7.2 kmh 29.65 in1004.1 mb 0.00 in0.0 mm 0.00 in0.0 mm 0.02 in0.5 mm
07:00 AM 53.2°F11.8°C 47.9°F8.8°C 82% 3.5 mph SSW5.6 kmh SSW 4.5 mph7.2 kmh 29.64 in1003.7 mb 0.00 in0.0 mm 0.00 in0.0 mm 0.02 in0.5 mm
07:15 AM 52.9°F11.6°C 48.5°F9.2°C 85% 2.0 mph SE3.2 kmh SE 2.2 mph3.5 kmh 29.63 in1003.4 mb 0.00 in0.0 mm 0.00 in0.0 mm 0.02 in0.5 mm
07:30 AM 52.3°F11.3°C 49.2°F9.6°C 89% 3.7 mph SSE6.0 kmh SSE 6.0 mph9.7 kmh 29.63 in1003.4 mb 0.00 in0.0 mm 0.00 in0.0 mm 0.02 in0.5 mm
07:45 AM 51.8°F11.0°C 50.1°F10.1°C 94% 2.2 mph SE3.5 kmh SE 4.5 mph7.2 kmh 29.63 in1003.4 mb 0.00 in0.0 mm 0.00 in0.0 mm 0.02 in0.5 mm
08:00 AM 52.2°F11.2°C 51.9°F11.1°C 99% 2.7 mph SE4.3 kmh SE 5.4 mph8.7 kmh 29.63 in1003.4 mb 0.00 in0.0 mm 0.00 in0.0 mm 0.02 in0.5 mm
08:15 AM 52.7°F11.5°C 52.4°F11.3°C 99% 3.3 mph SE5.3 kmh SE 5.4 mph8.7 kmh 29.62 in1003.0 mb 0.00 in0.0 mm 0.00 in0.0 mm 0.02 in0.5 mm
08:30 AM 52.5°F11.4°C 52.3°F11.3°C 99% 3.6 mph SSE5.8 kmh SSE 5.4 mph8.7 kmh 29.62 in1003.0 mb 0.00 in0.0 mm 0.00 in0.0 mm 0.02 in0.5 mm
08:45 AM 52.2°F11.2°C 51.9°F11.1°C 99% 3.7 mph SE6.0 kmh SE 4.5 mph7.2 kmh 29.62 in1003.0 mb 0.00 in0.0 mm 0.00 in0.0 mm 0.02 in0.5 mm
09:00 AM 51.4°F10.8°C 51.2°F10.7°C 99% 3.4 mph SSE5.5 kmh SSE 6.0 mph9.7 kmh 29.62 in1003.0 mb 0.02 in0.5 mm 0.03 in0.8 mm 0.04 in1.0 mm
09:15 AM 52.0°F11.1°C 51.7°F10.9°C 99% 1.6 mph SE2.6 kmh SE 3.1 mph5.0 kmh 29.61 in1002.7 mb 0.04 in1.0 mm 0.08 in2.0 mm 0.06 in1.5 mm
09:30 AM 52.9°F11.6°C 52.6°F11.4°C 99% 2.8 mph S4.5 kmh S 6.0 mph9.7 kmh 29.62 in1003.0 mb 0.04 in1.0 mm 0.00 in0.0 mm 0.06 in1.5 mm
09:45 AM 53.1°F11.7°C 52.8°F11.6°C 99% 3.0 mph SSE4.8 kmh SSE 5.4 mph8.7 kmh 29.61 in1002.7 mb 0.04 in1.0 mm 0.00 in0.0 mm 0.06 in1.5 mm
10:00 AM 53.6°F12.0°C 53.3°F11.8°C 99% 3.3 mph S5.3 kmh S 6.0 mph9.7 kmh 29.60 in1002.4 mb 0.02 in0.5 mm 0.00 in0.0 mm 0.06 in1.5 mm
10:15 AM 54.0°F12.2°C 53.7°F12.1°C 99% 3.3 mph SE5.3 kmh SE 5.4 mph8.7 kmh 29.60 in1002.4 mb 0.00 in0.0 mm 0.00 in0.0 mm 0.06 in1.5 mm
10:30 AM 52.7°F11.5°C 52.4°F11.3°C 99% 4.6 mph SSE7.4 kmh SSE 7.6 mph12.2 kmh 29.60 in1002.4 mb 0.06 in1.5 mm 0.24 in6.1 mm 0.11 in2.8 mm
10:45 AM 53.1°F11.7°C 52.8°F11.6°C 99% 3.9 mph SSE6.3 kmh SSE 5.4 mph8.7 kmh 29.60 in1002.4 mb 0.06 in1.5 mm 0.00 in0.0 mm 0.11 in2.8 mm
11:00 AM 52.5°F11.4°C 52.3°F11.3°C 99% 4.1 mph SSE6.6 kmh SSE 7.6 mph12.2 kmh 29.60 in1002.4 mb 0.06 in1.5 mm 0.00 in0.0 mm 0.11 in2.8 mm
11:15 AM 52.2°F11.2°C 51.9°F11.1°C 99% 4.4 mph SE7.1 kmh SE 8.3 mph13.4 kmh 29.59 in1002.0 mb 0.09 in2.3 mm 0.12 in3.0 mm 0.15 in3.8 mm
11:30 AM 52.9°F11.6°C 52.6°F11.4°C 99% 4.1 mph S6.6 kmh S 6.9 mph11.1 kmh 29.59 in1002.0 mb 0.04 in1.0 mm 0.00 in0.0 mm 0.15 in3.8 mm
11:45 AM 52.5°F11.4°C 52.3°F11.3°C 99% 3.4 mph S5.5 kmh S 6.0 mph9.7 kmh 29.59 in1002.0 mb 0.06 in1.5 mm 0.08 in2.0 mm 0.17 in4.3 mm
12:00 PM 52.2°F11.2°C 51.9°F11.1°C 99% 4.6 mph S7.4 kmh S 6.0 mph9.7 kmh 29.59 in1002.0 mb 0.11 in2.8 mm 0.07 in1.8 mm 0.23 in5.8 mm
12:15 PM 53.2°F11.8°C 53.0°F11.7°C 99% 5.1 mph S8.2 kmh S 8.3 mph13.4 kmh 29.59 in1002.0 mb 0.09 in2.3 mm 0.00 in0.0 mm 0.25 in6.4 mm
12:30 PM 52.9°F11.6°C 52.6°F11.4°C 99% 5.6 mph SSE9.0 kmh SSE 8.3 mph13.4 kmh 29.59 in1002.0 mb 0.09 in2.3 mm 0.00 in0.0 mm 0.25 in6.4 mm
12:45 PM 52.7°F11.5°C 52.4°F11.3°C 99% 5.7 mph S9.2 kmh S 9.2 mph14.8 kmh 29.58 in1001.7 mb 0.09 in2.3 mm 0.00 in0.0 mm 0.26 in6.6 mm
01:00 PM 53.1°F11.7°C 52.8°F11.6°C 99% 3.5 mph S5.6 kmh S 6.9 mph11.1 kmh 29.58 in1001.7 mb 0.04 in1.0 mm 0.00 in0.0 mm 0.26 in6.6 mm
01:15 PM 54.3°F12.4°C 54.1°F12.3°C 99% 4.1 mph SSE6.6 kmh SSE 8.3 mph13.4 kmh 29.58 in1001.7 mb 0.04 in1.0 mm 0.00 in0.0 mm 0.28 in7.1 mm
01:30 PM 53.1°F11.7°C 52.8°F11.6°C 99% 5.6 mph SSE9.0 kmh SSE 8.3 mph13.4 kmh 29.58 in1001.7 mb 0.04 in1.0 mm 0.00 in0.0 mm 0.28 in7.1 mm
01:45 PM 52.2°F11.2°C 51.9°F11.1°C 99% 6.9 mph SE11.1 kmh SE 15.9 mph25.6 kmh 29.58 in1001.7 mb 0.02 in0.5 mm 0.00 in0.0 mm 0.28 in7.1 mm
02:00 PM 52.0°F11.1°C 51.7°F10.9°C 99% 2.8 mph ESE4.5 kmh ESE 7.6 mph12.2 kmh 29.57 in1001.4 mb 0.02 in0.5 mm 0.00 in0.0 mm 0.28 in7.1 mm
02:15 PM 52.7°F11.5°C 52.4°F11.3°C 99% 2.7 mph S4.3 kmh S 4.5 mph7.2 kmh 29.55 in1000.7 mb 0.00 in0.0 mm 0.00 in0.0 mm 0.28 in7.1 mm
02:30 PM 52.5°F11.4°C 52.3°F11.3°C 99% 4.9 mph S7.9 kmh S 9.8 mph15.8 kmh 29.56 in1001.0 mb 0.00 in0.0 mm 0.00 in0.0 mm 0.28 in7.1 mm
02:45 PM 51.6°F10.9°C 51.4°F10.8°C 99% 9.1 mph SSE14.6 kmh SSE 12.1 mph19.5 kmh 29.57 in1001.4 mb 0.00 in0.0 mm 0.00 in0.0 mm 0.28 in7.1 mm
03:00 PM 51.6°F10.9°C 51.4°F10.8°C 99% 6.0 mph SSE9.7 kmh SSE 9.2 mph14.8 kmh 29.56 in1001.0 mb 0.00 in0.0 mm 0.00 in0.0 mm 0.28 in7.1 mm
03:15 PM 51.1°F10.6°C 50.8°F10.4°C 99% 5.4 mph S8.7 kmh S 9.2 mph14.8 kmh 29.56 in1001.0 mb 0.00 in0.0 mm 0.00 in0.0 mm 0.28 in7.1 mm
03:30 PM 51.3°F10.7°C 51.0°F10.6°C 99% 4.1 mph SE6.6 kmh SE 6.9 mph11.1 kmh 29.55 in1000.7 mb 0.00 in0.0 mm 0.00 in0.0 mm 0.28 in7.1 mm
03:45 PM 51.6°F10.9°C 51.4°F10.8°C 99% 5.4 mph SE8.7 kmh SE 9.2 mph14.8 kmh 29.55 in1000.7 mb 0.00 in0.0 mm 0.00 in0.0 mm 0.28 in7.1 mm
04:00 PM 51.4°F10.8°C 51.2°F10.7°C 99% 5.3 mph S8.5 kmh S 7.6 mph12.2 kmh 29.53 in1000.0 mb 0.02 in0.5 mm 0.03 in0.8 mm 0.30 in7.6 mm
04:15 PM 51.8°F11.0°C 51.5°F10.8°C 99% 3.6 mph E5.8 kmh E 6.9 mph11.1 kmh 29.53 in1000.0 mb 0.02 in0.5 mm 0.00 in0.0 mm 0.30 in7.6 mm
04:30 PM 52.0°F11.1°C 51.7°F10.9°C 99% 4.6 mph SW7.4 kmh SW 6.9 mph11.1 kmh 29.54 in1000.3 mb 0.04 in1.0 mm 0.08 in2.0 mm 0.32 in8.1 mm
04:45 PM 52.2°F11.2°C 51.9°F11.1°C 99% 3.5 mph SE5.6 kmh SE 6.0 mph9.7 kmh 29.54 in1000.3 mb 0.04 in1.0 mm 0.00 in0.0 mm 0.32 in8.1 mm
05:00 PM 53.6°F12.0°C 53.3°F11.8°C 99% 4.8 mph SE7.7 kmh SE 6.9 mph11.1 kmh 29.53 in1000.0 mb 0.02 in0.5 mm 0.00 in0.0 mm 0.32 in8.1 mm
05:15 PM 54.7°F12.6°C 54.4°F12.4°C 99% 6.5 mph S10.5 kmh S 12.1 mph19.5 kmh 29.53 in1000.0 mb 0.02 in0.5 mm 0.00 in0.0 mm 0.32 in8.1 mm
05:30 PM 55.2°F12.9°C 55.0°F12.8°C 99% 6.0 mph S9.7 kmh S 7.6 mph12.2 kmh 29.54 in1000.3 mb 0.00 in0.0 mm 0.00 in0.0 mm 0.32 in8.1 mm
05:45 PM 55.4°F13.0°C 55.1°F12.8°C 99% 4.2 mph SSE6.8 kmh SSE 7.6 mph12.2 kmh 29.54 in1000.3 mb 0.00 in0.0 mm 0.00 in0.0 mm 0.32 in8.1 mm
06:00 PM 56.3°F13.5°C 56.0°F13.3°C 99% 4.8 mph SSE7.7 kmh SSE 9.2 mph14.8 kmh 29.54 in1000.3 mb 0.00 in0.0 mm 0.00 in0.0 mm 0.32 in8.1 mm
06:15 PM 54.9°F12.7°C 54.6°F12.6°C 99% 6.7 mph SE10.8 kmh SE 9.8 mph15.8 kmh 29.54 in1000.3 mb 0.00 in0.0 mm 0.00 in0.0 mm 0.32 in8.1 mm
06:30 PM 54.5°F12.5°C 54.2°F12.3°C 99% 8.6 mph SSE13.8 kmh SSE 13.0 mph20.9 kmh 29.54 in1000.3 mb 0.00 in0.0 mm 0.00 in0.0 mm 0.32 in8.1 mm
06:45 PM 54.7°F12.6°C 54.4°F12.4°C 99% 9.8 mph SSE15.8 kmh SSE 13.0 mph20.9 kmh 29.55 in1000.7 mb 0.00 in0.0 mm 0.00 in0.0 mm 0.32 in8.1 mm
07:00 PM 54.5°F12.5°C 54.2°F12.3°C 99% 9.1 mph S14.6 kmh S 15.2 mph24.5 kmh 29.55 in1000.7 mb 0.00 in0.0 mm 0.00 in0.0 mm 0.32 in8.1 mm
07:15 PM 53.8°F12.1°C 53.5°F11.9°C 99% 9.7 mph S15.6 kmh S 15.2 mph24.5 kmh 29.55 in1000.7 mb 0.00 in0.0 mm 0.00 in0.0 mm 0.32 in8.1 mm
07:30 PM 53.8°F12.1°C 53.5°F11.9°C 99% 7.6 mph SSE12.2 kmh SSE 16.8 mph27.0 kmh 29.56 in1001.0 mb 0.00 in0.0 mm 0.00 in0.0 mm 0.32 in8.1 mm
07:45 PM 53.6°F12.0°C 53.3°F11.8°C 99% 6.3 mph SE10.1 kmh SE 11.4 mph18.3 kmh 29.56 in1001.0 mb 0.00 in0.0 mm 0.00 in0.0 mm 0.32 in8.1 mm
08:00 PM 53.6°F12.0°C 53.3°F11.8°C 99% 6.7 mph SE10.8 kmh SE 12.1 mph19.5 kmh 29.56 in1001.0 mb 0.00 in0.0 mm 0.00 in0.0 mm 0.32 in8.1 mm
08:15 PM 53.6°F12.0°C 53.3°F11.8°C 99% 5.4 mph SSE8.7 kmh SSE 7.6 mph12.2 kmh 29.56 in1001.0 mb 0.00 in0.0 mm 0.00 in0.0 mm 0.32 in8.1 mm
08:30 PM 53.2°F11.8°C 53.0°F11.7°C 99% 5.6 mph S9.0 kmh S 8.3 mph13.4 kmh 29.56 in1001.0 mb 0.00 in0.0 mm 0.00 in0.0 mm 0.32 in8.1 mm
08:45 PM 52.9°F11.6°C 52.6°F11.4°C 99% 6.4 mph S10.3 kmh S 10.7 mph17.2 kmh 29.57 in1001.4 mb 0.00 in0.0 mm 0.00 in0.0 mm 0.32 in8.1 mm
09:00 PM 52.3°F11.3°C 52.1°F11.2°C 99% 8.7 mph SE14.0 kmh SE 11.4 mph18.3 kmh 29.57 in1001.4 mb 0.00 in0.0 mm 0.00 in0.0 mm 0.32 in8.1 mm
09:15 PM 52.0°F11.1°C 51.7°F10.9°C 99% 9.1 mph SSE14.6 kmh SSE 13.0 mph20.9 kmh 29.57 in1001.4 mb 0.00 in0.0 mm 0.00 in0.0 mm 0.32 in8.1 mm
09:30 PM 51.8°F11.0°C 51.5°F10.8°C 99% 7.3 mph S11.7 kmh S 9.8 mph15.8 kmh 29.57 in1001.4 mb 0.00 in0.0 mm 0.00 in0.0 mm 0.32 in8.1 mm
09:45 PM 51.6°F10.9°C 51.4°F10.8°C 99% 6.0 mph SE9.7 kmh SE 8.3 mph13.4 kmh 29.58 in1001.7 mb 0.00 in0.0 mm 0.00 in0.0 mm 0.32 in8.1 mm
10:00 PM 51.6°F10.9°C 51.4°F10.8°C 99% 7.8 mph S12.6 kmh S 9.2 mph14.8 kmh 29.58 in1001.7 mb 0.00 in0.0 mm 0.00 in0.0 mm 0.32 in8.1 mm
10:15 PM 51.4°F10.8°C 51.2°F10.7°C 99% 6.2 mph SSE10.0 kmh SSE 9.8 mph15.8 kmh 29.58 in1001.7 mb 0.00 in0.0 mm 0.00 in0.0 mm 0.32 in8.1 mm
10:30 PM 51.3°F10.7°C 51.0°F10.6°C 99% 4.7 mph SSE7.6 kmh SSE 6.9 mph11.1 kmh 29.58 in1001.7 mb 0.00 in0.0 mm 0.00 in0.0 mm 0.32 in8.1 mm
10:45 PM 51.3°F10.7°C 51.0°F10.6°C 99% 5.6 mph SE9.0 kmh SE 9.8 mph15.8 kmh 29.58 in1001.7 mb 0.00 in0.0 mm 0.00 in0.0 mm 0.32 in8.1 mm
11:00 PM 51.1°F10.6°C 50.8°F10.4°C 99% 3.9 mph SSE6.3 kmh SSE 6.0 mph9.7 kmh 29.57 in1001.4 mb 0.00 in0.0 mm 0.00 in0.0 mm 0.26 in6.6 mm
11:15 PM 50.9°F10.5°C 50.6°F10.3°C 99% 5.9 mph SE9.5 kmh SE 12.1 mph19.5 kmh 29.57 in1001.4 mb 0.00 in0.0 mm 0.00 in0.0 mm 0.26 in6.6 mm
11:30 PM 50.7°F10.4°C 50.5°F10.3°C 99% 6.5 mph SE10.5 kmh SE 12.1 mph19.5 kmh 29.58 in1001.7 mb 0.00 in0.0 mm 0.00 in0.0 mm 0.26 in6.6 mm
11:45 PM 50.5°F10.3°C 50.3°F10.2°C 99% 7.0 mph SSE11.3 kmh SSE 11.4 mph18.3 kmh 29.58 in1001.7 mb 0.00 in0.0 mm 0.00 in0.0 mm 0.26 in6.6 mm